sensor_id;sensor_type;location;lat;lon;timestamp;P1;durP1;ratioP1;P2;durP2;ratioP2
78838;SDS011;68405;47.190;27.558;2024-01-16T00:00:27;13.80;;;8.90;;
78838;SDS011;68405;47.190;27.558;2024-01-16T00:03:18;12.30;;;8.50;;
78838;SDS011;68405;47.190;27.558;2024-01-16T00:05:50;15.20;;;9.20;;
78838;SDS011;68405;47.190;27.558;2024-01-16T00:08:21;18.30;;;9.90;;
78838;SDS011;68405;47.190;27.558;2024-01-16T00:10:53;18.10;;;9.70;;
78838;SDS011;68405;47.190;27.558;2024-01-16T00:13:25;14.20;;;8.80;;
78838;SDS011;68405;47.190;27.558;2024-01-16T00:15:56;22.40;;;10.50;;
78838;SDS011;68405;47.190;27.558;2024-01-16T00:18:28;17.70;;;10.80;;
78838;SDS011;68405;47.190;27.558;2024-01-16T00:21:04;16.30;;;7.70;;
78838;SDS011;68405;47.190;27.558;2024-01-16T00:23:35;12.80;;;7.70;;
78838;SDS011;68405;47.190;27.558;2024-01-16T00:26:07;18.90;;;11.10;;
78838;SDS011;68405;47.190;27.558;2024-01-16T00:28:50;13.00;;;8.30;;
78838;SDS011;68405;47.190;27.558;2024-01-16T00:31:23;13.60;;;8.00;;
78838;SDS011;68405;47.190;27.558;2024-01-16T00:33:54;14.70;;;9.40;;
78838;SDS011;68405;47.190;27.558;2024-01-16T00:36:26;16.10;;;10.20;;
78838;SDS011;68405;47.190;27.558;2024-01-16T00:38:58;16.90;;;10.10;;
78838;SDS011;68405;47.190;27.558;2024-01-16T00:41:30;18.10;;;10.50;;
78838;SDS011;68405;47.190;27.558;2024-01-16T00:44:02;15.60;;;9.40;;
78838;SDS011;68405;47.190;27.558;2024-01-16T00:46:33;14.70;;;8.60;;
78838;SDS011;68405;47.190;27.558;2024-01-16T00:49:05;12.00;;;8.40;;
78838;SDS011;68405;47.190;27.558;2024-01-16T00:51:37;13.70;;;9.10;;
78838;SDS011;68405;47.190;27.558;2024-01-16T00:54:09;13.20;;;7.70;;
78838;SDS011;68405;47.190;27.558;2024-01-16T00:56:41;13.90;;;8.80;;
78838;SDS011;68405;47.190;27.558;2024-01-16T00:59:14;15.50;;;8.00;;
78838;SDS011;68405;47.190;27.558;2024-01-16T01:01:45;14.90;;;9.50;;
78838;SDS011;68405;47.190;27.558;2024-01-16T01:04:17;13.80;;;8.40;;
78838;SDS011;68405;47.190;27.558;2024-01-16T01:06:48;14.60;;;7.60;;
78838;SDS011;68405;47.190;27.558;2024-01-16T01:09:20;12.20;;;7.80;;
78838;SDS011;68405;47.190;27.558;2024-01-16T01:11:52;9.40;;;6.10;;
78838;SDS011;68405;47.190;27.558;2024-01-16T01:14:24;13.70;;;7.40;;
78838;SDS011;68405;47.190;27.558;2024-01-16T01:16:57;12.80;;;7.40;;
78838;SDS011;68405;47.190;27.558;2024-01-16T01:19:29;11.90;;;6.50;;
78838;SDS011;68405;47.190;27.558;2024-01-16T01:22:01;12.80;;;7.30;;
78838;SDS011;68405;47.190;27.558;2024-01-16T01:24:33;10.60;;;5.90;;
78838;SDS011;68405;47.190;27.558;2024-01-16T01:27:04;12.60;;;6.70;;
78838;SDS011;68405;47.190;27.558;2024-01-16T01:29:36;11.30;;;7.40;;
78838;SDS011;68405;47.190;27.558;2024-01-16T01:32:07;11.30;;;7.10;;
78838;SDS011;68405;47.190;27.558;2024-01-16T01:34:39;9.90;;;6.10;;
78838;SDS011;68405;47.190;27.558;2024-01-16T01:37:12;14.70;;;8.30;;
78838;SDS011;68405;47.190;27.558;2024-01-16T01:39:43;12.70;;;7.60;;
78838;SDS011;68405;47.190;27.558;2024-01-16T01:42:16;13.60;;;7.70;;
78838;SDS011;68405;47.190;27.558;2024-01-16T01:44:48;11.70;;;6.60;;
78838;SDS011;68405;47.190;27.558;2024-01-16T01:47:19;12.40;;;6.90;;
78838;SDS011;68405;47.190;27.558;2024-01-16T01:49:51;13.00;;;7.90;;
78838;SDS011;68405;47.190;27.558;2024-01-16T01:52:22;11.10;;;6.90;;
78838;SDS011;68405;47.190;27.558;2024-01-16T01:54:54;15.40;;;9.30;;
78838;SDS011;68405;47.190;27.558;2024-01-16T01:57:26;11.80;;;6.70;;
78838;SDS011;68405;47.190;27.558;2024-01-16T01:59:58;11.10;;;7.30;;
78838;SDS011;68405;47.190;27.558;2024-01-16T02:02:31;13.10;;;6.10;;
78838;SDS011;68405;47.190;27.558;2024-01-16T02:05:03;13.40;;;8.30;;
78838;SDS011;68405;47.190;27.558;2024-01-16T02:07:36;10.80;;;7.30;;
78838;SDS011;68405;47.190;27.558;2024-01-16T02:10:08;14.00;;;8.40;;
78838;SDS011;68405;47.190;27.558;2024-01-16T02:26:27;10.30;;;6.50;;
78838;SDS011;68405;47.190;27.558;2024-01-16T02:29:04;14.80;;;8.00;;
78838;SDS011;68405;47.190;27.558;2024-01-16T02:31:36;11.00;;;7.50;;
78838;SDS011;68405;47.190;27.558;2024-01-16T02:34:10;11.70;;;6.30;;
78838;SDS011;68405;47.190;27.558;2024-01-16T02:36:43;13.30;;;8.20;;
78838;SDS011;68405;47.190;27.558;2024-01-16T02:39:15;11.60;;;7.30;;
78838;SDS011;68405;47.190;27.558;2024-01-16T02:41:48;12.90;;;7.60;;
78838;SDS011;68405;47.190;27.558;2024-01-16T02:44:20;14.80;;;9.20;;
78838;SDS011;68405;47.190;27.558;2024-01-16T02:46:52;11.20;;;7.50;;
78838;SDS011;68405;47.190;27.558;2024-01-16T02:49:25;13.90;;;8.60;;
78838;SDS011;68405;47.190;27.558;2024-01-16T02:52:00;11.50;;;7.80;;
78838;SDS011;68405;47.190;27.558;2024-01-16T02:54:33;13.50;;;8.00;;
78838;SDS011;68405;47.190;27.558;2024-01-16T02:57:05;14.50;;;8.60;;
78838;SDS011;68405;47.190;27.558;2024-01-16T02:59:38;12.90;;;8.50;;
78838;SDS011;68405;47.190;27.558;2024-01-16T03:02:13;18.00;;;8.70;;
78838;SDS011;68405;47.190;27.558;2024-01-16T03:04:46;13.50;;;8.60;;
78838;SDS011;68405;47.190;27.558;2024-01-16T03:07:21;13.10;;;8.60;;
78838;SDS011;68405;47.190;27.558;2024-01-16T03:09:53;15.80;;;9.40;;
78838;SDS011;68405;47.190;27.558;2024-01-16T03:12:25;15.00;;;9.20;;
78838;SDS011;68405;47.190;27.558;2024-01-16T03:14:56;16.70;;;10.50;;
78838;SDS011;68405;47.190;27.558;2024-01-16T03:17:28;16.30;;;10.80;;
78838;SDS011;68405;47.190;27.558;2024-01-16T03:20:00;14.00;;;9.70;;
78838;SDS011;68405;47.190;27.558;2024-01-16T03:22:38;14.40;;;9.10;;
78838;SDS011;68405;47.190;27.558;2024-01-16T03:25:11;14.80;;;8.70;;
78838;SDS011;68405;47.190;27.558;2024-01-16T03:27:47;14.40;;;9.70;;
78838;SDS011;68405;47.190;27.558;2024-01-16T03:30:20;12.50;;;7.40;;
78838;SDS011;68405;47.190;27.558;2024-01-16T03:32:52;15.70;;;9.40;;
78838;SDS011;68405;47.190;27.558;2024-01-16T03:35:28;12.00;;;8.40;;
78838;SDS011;68405;47.190;27.558;2024-01-16T03:38:04;12.70;;;8.10;;
78838;SDS011;68405;47.190;27.558;2024-01-16T03:40:37;14.80;;;8.80;;
78838;SDS011;68405;47.190;27.558;2024-01-16T03:43:10;11.40;;;7.20;;
78838;SDS011;68405;47.190;27.558;2024-01-16T03:45:43;13.50;;;7.80;;
78838;SDS011;68405;47.190;27.558;2024-01-16T03:48:18;13.10;;;8.20;;
78838;SDS011;68405;47.190;27.558;2024-01-16T03:50:50;12.10;;;8.10;;
78838;SDS011;68405;47.190;27.558;2024-01-16T03:53:25;14.90;;;9.60;;
78838;SDS011;68405;47.190;27.558;2024-01-16T03:56:03;14.10;;;9.60;;
78838;SDS011;68405;47.190;27.558;2024-01-16T03:58:36;15.50;;;10.10;;
78838;SDS011;68405;47.190;27.558;2024-01-16T04:09:54;17.70;;;10.00;;
78838;SDS011;68405;47.190;27.558;2024-01-16T04:19:05;16.10;;;8.00;;
78838;SDS011;68405;47.190;27.558;2024-01-16T04:21:38;16.90;;;9.90;;
78838;SDS011;68405;47.190;27.558;2024-01-16T04:24:13;18.70;;;10.20;;
78838;SDS011;68405;47.190;27.558;2024-01-16T04:26:46;18.70;;;11.00;;
78838;SDS011;68405;47.190;27.558;2024-01-16T04:29:26;17.70;;;9.80;;
78838;SDS011;68405;47.190;27.558;2024-01-16T04:32:21;15.20;;;9.30;;
78838;SDS011;68405;47.190;27.558;2024-01-16T04:34:54;14.10;;;9.00;;
78838;SDS011;68405;47.190;27.558;2024-01-16T04:37:28;17.50;;;9.20;;
78838;SDS011;68405;47.190;27.558;2024-01-16T04:40:03;14.70;;;8.70;;
78838;SDS011;68405;47.190;27.558;2024-01-16T04:42:37;13.80;;;9.10;;
78838;SDS011;68405;47.190;27.558;2024-01-16T04:45:13;13.10;;;8.30;;
78838;SDS011;68405;47.190;27.558;2024-01-16T04:47:46;17.40;;;9.20;;
78838;SDS011;68405;47.190;27.558;2024-01-16T04:50:19;16.00;;;9.80;;
78838;SDS011;68405;47.190;27.558;2024-01-16T04:53:03;13.60;;;8.80;;
78838;SDS011;68405;47.190;27.558;2024-01-16T04:55:39;16.00;;;9.60;;
78838;SDS011;68405;47.190;27.558;2024-01-16T04:58:14;18.20;;;10.10;;
78838;SDS011;68405;47.190;27.558;2024-01-16T05:00:51;19.90;;;11.90;;
78838;SDS011;68405;47.190;27.558;2024-01-16T05:03:26;16.70;;;9.70;;
78838;SDS011;68405;47.190;27.558;2024-01-16T05:06:02;17.30;;;10.00;;
78838;SDS011;68405;47.190;27.558;2024-01-16T05:25:12;15.70;;;10.10;;
78838;SDS011;68405;47.190;27.558;2024-01-16T05:28:04;13.60;;;9.10;;
78838;SDS011;68405;47.190;27.558;2024-01-16T05:30:37;16.70;;;10.30;;
78838;SDS011;68405;47.190;27.558;2024-01-16T05:33:09;12.40;;;8.20;;
78838;SDS011;68405;47.190;27.558;2024-01-16T05:35:40;14.00;;;8.10;;
78838;SDS011;68405;47.190;27.558;2024-01-16T05:38:16;12.30;;;7.90;;
78838;SDS011;68405;47.190;27.558;2024-01-16T05:40:48;13.60;;;8.60;;
78838;SDS011;68405;47.190;27.558;2024-01-16T05:43:20;13.80;;;8.60;;
78838;SDS011;68405;47.190;27.558;2024-01-16T05:45:59;12.50;;;8.10;;
78838;SDS011;68405;47.190;27.558;2024-01-16T05:48:29;12.80;;;7.70;;
78838;SDS011;68405;47.190;27.558;2024-01-16T05:51:02;18.80;;;10.40;;
78838;SDS011;68405;47.190;27.558;2024-01-16T05:53:33;15.30;;;8.90;;
78838;SDS011;68405;47.190;27.558;2024-01-16T05:56:03;16.30;;;9.90;;
78838;SDS011;68405;47.190;27.558;2024-01-16T05:58:38;16.70;;;10.10;;
78838;SDS011;68405;47.190;27.558;2024-01-16T06:01:08;13.20;;;7.40;;
78838;SDS011;68405;47.190;27.558;2024-01-16T06:03:41;15.30;;;8.40;;
78838;SDS011;68405;47.190;27.558;2024-01-16T06:06:16;13.90;;;7.50;;
78838;SDS011;68405;47.190;27.558;2024-01-16T06:08:51;13.90;;;8.90;;
78838;SDS011;68405;47.190;27.558;2024-01-16T06:49:56;17.30;;;10.00;;
78838;SDS011;68405;47.190;27.558;2024-01-16T06:58:17;18.00;;;9.30;;
78838;SDS011;68405;47.190;27.558;2024-01-16T07:20:22;12.90;;;10.30;;
78838;SDS011;68405;47.190;27.558;2024-01-16T07:22:52;13.80;;;10.60;;
78838;SDS011;68405;47.190;27.558;2024-01-16T07:25:47;13.00;;;10.30;;
78838;SDS011;68405;47.190;27.558;2024-01-16T07:28:24;14.20;;;11.10;;
78838;SDS011;68405;47.190;27.558;2024-01-16T07:30:57;13.10;;;10.50;;
78838;SDS011;68405;47.190;27.558;2024-01-16T07:33:26;13.50;;;10.90;;
78838;SDS011;68405;47.190;27.558;2024-01-16T07:35:55;14.10;;;10.50;;
78838;SDS011;68405;47.190;27.558;2024-01-16T07:38:24;14.40;;;11.60;;
78838;SDS011;68405;47.190;27.558;2024-01-16T07:40:53;14.70;;;10.90;;
78838;SDS011;68405;47.190;27.558;2024-01-16T07:43:25;14.00;;;10.50;;
78838;SDS011;68405;47.190;27.558;2024-01-16T07:45:54;16.00;;;11.90;;
78838;SDS011;68405;47.190;27.558;2024-01-16T07:48:23;16.20;;;10.70;;
78838;SDS011;68405;47.190;27.558;2024-01-16T07:50:53;14.20;;;11.00;;
78838;SDS011;68405;47.190;27.558;2024-01-16T07:53:28;15.00;;;11.80;;
78838;SDS011;68405;47.190;27.558;2024-01-16T07:56:08;14.30;;;11.90;;
78838;SDS011;68405;47.190;27.558;2024-01-16T07:58:41;11.80;;;9.30;;
78838;SDS011;68405;47.190;27.558;2024-01-16T08:01:09;16.60;;;12.30;;
78838;SDS011;68405;47.190;27.558;2024-01-16T08:03:38;19.70;;;13.40;;
78838;SDS011;68405;47.190;27.558;2024-01-16T08:06:07;16.70;;;12.50;;
78838;SDS011;68405;47.190;27.558;2024-01-16T08:08:43;18.00;;;12.80;;
78838;SDS011;68405;47.190;27.558;2024-01-16T08:16:59;18.40;;;12.30;;
78838;SDS011;68405;47.190;27.558;2024-01-16T08:19:38;16.40;;;12.40;;
78838;SDS011;68405;47.190;27.558;2024-01-16T08:22:08;15.90;;;12.20;;
78838;SDS011;68405;47.190;27.558;2024-01-16T08:24:42;18.10;;;14.10;;
78838;SDS011;68405;47.190;27.558;2024-01-16T08:27:11;16.20;;;14.10;;
78838;SDS011;68405;47.190;27.558;2024-01-16T08:29:43;16.90;;;15.20;;
78838;SDS011;68405;47.190;27.558;2024-01-16T08:32:19;20.60;;;18.30;;
78838;SDS011;68405;47.190;27.558;2024-01-16T08:34:49;18.80;;;16.90;;
78838;SDS011;68405;47.190;27.558;2024-01-16T08:37:19;15.70;;;13.70;;
78838;SDS011;68405;47.190;27.558;2024-01-16T08:39:54;15.30;;;13.50;;
78838;SDS011;68405;47.190;27.558;2024-01-16T08:42:31;15.00;;;13.50;;
78838;SDS011;68405;47.190;27.558;2024-01-16T08:45:00;16.00;;;14.30;;
78838;SDS011;68405;47.190;27.558;2024-01-16T08:47:32;14.30;;;12.90;;
78838;SDS011;68405;47.190;27.558;2024-01-16T08:50:01;14.40;;;12.80;;
78838;SDS011;68405;47.190;27.558;2024-01-16T08:52:30;15.30;;;13.70;;
78838;SDS011;68405;47.190;27.558;2024-01-16T08:54:59;14.60;;;13.10;;
78838;SDS011;68405;47.190;27.558;2024-01-16T08:57:28;14.40;;;12.90;;
78838;SDS011;68405;47.190;27.558;2024-01-16T08:59:57;16.00;;;14.00;;
78838;SDS011;68405;47.190;27.558;2024-01-16T09:02:26;15.10;;;13.60;;
78838;SDS011;68405;47.190;27.558;2024-01-16T09:04:57;13.70;;;12.40;;
78838;SDS011;68405;47.190;27.558;2024-01-16T09:07:28;13.00;;;11.80;;
78838;SDS011;68405;47.190;27.558;2024-01-16T09:09:58;12.80;;;11.60;;
78838;SDS011;68405;47.190;27.558;2024-01-16T09:12:28;12.90;;;11.70;;
78838;SDS011;68405;47.190;27.558;2024-01-16T09:14:57;12.30;;;11.10;;
78838;SDS011;68405;47.190;27.558;2024-01-16T09:17:26;12.10;;;10.90;;
78838;SDS011;68405;47.190;27.558;2024-01-16T09:19:56;11.70;;;10.60;;
78838;SDS011;68405;47.190;27.558;2024-01-16T09:22:26;12.60;;;11.40;;
78838;SDS011;68405;47.190;27.558;2024-01-16T09:24:55;12.50;;;11.40;;
78838;SDS011;68405;47.190;27.558;2024-01-16T09:27:26;12.70;;;11.50;;
78838;SDS011;68405;47.190;27.558;2024-01-16T09:29:55;12.10;;;10.80;;
78838;SDS011;68405;47.190;27.558;2024-01-16T09:32:25;12.90;;;11.70;;
78838;SDS011;68405;47.190;27.558;2024-01-16T09:34:54;11.40;;;10.30;;
78838;SDS011;68405;47.190;27.558;2024-01-16T09:37:26;11.50;;;10.40;;
78838;SDS011;68405;47.190;27.558;2024-01-16T09:39:56;12.20;;;10.90;;
78838;SDS011;68405;47.190;27.558;2024-01-16T09:42:25;12.10;;;11.00;;
78838;SDS011;68405;47.190;27.558;2024-01-16T09:44:55;10.10;;;9.10;;
78838;SDS011;68405;47.190;27.558;2024-01-16T09:47:25;11.60;;;10.50;;
78838;SDS011;68405;47.190;27.558;2024-01-16T09:50:05;9.60;;;8.70;;
78838;SDS011;68405;47.190;27.558;2024-01-16T09:52:37;10.10;;;9.00;;
78838;SDS011;68405;47.190;27.558;2024-01-16T09:55:08;10.90;;;9.80;;
78838;SDS011;68405;47.190;27.558;2024-01-16T09:57:39;11.30;;;10.20;;
78838;SDS011;68405;47.190;27.558;2024-01-16T10:00:10;12.10;;;10.90;;
78838;SDS011;68405;47.190;27.558;2024-01-16T10:02:44;12.80;;;11.50;;
78838;SDS011;68405;47.190;27.558;2024-01-16T10:05:14;12.20;;;11.10;;
78838;SDS011;68405;47.190;27.558;2024-01-16T10:07:44;12.20;;;11.10;;
78838;SDS011;68405;47.190;27.558;2024-01-16T10:10:13;12.70;;;11.40;;
78838;SDS011;68405;47.190;27.558;2024-01-16T10:12:41;10.80;;;9.80;;
78838;SDS011;68405;47.190;27.558;2024-01-16T10:15:12;11.00;;;10.00;;
78838;SDS011;68405;47.190;27.558;2024-01-16T10:17:43;10.80;;;9.70;;
78838;SDS011;68405;47.190;27.558;2024-01-16T10:20:12;9.10;;;8.20;;
78838;SDS011;68405;47.190;27.558;2024-01-16T10:22:52;10.10;;;9.10;;
78838;SDS011;68405;47.190;27.558;2024-01-16T10:25:23;9.40;;;8.40;;
78838;SDS011;68405;47.190;27.558;2024-01-16T10:28:02;8.70;;;7.80;;
78838;SDS011;68405;47.190;27.558;2024-01-16T10:30:39;8.90;;;8.10;;
78838;SDS011;68405;47.190;27.558;2024-01-16T10:33:14;8.80;;;7.80;;
78838;SDS011;68405;47.190;27.558;2024-01-16T10:35:43;8.90;;;8.00;;
78838;SDS011;68405;47.190;27.558;2024-01-16T10:38:13;9.30;;;7.70;;
78838;SDS011;68405;47.190;27.558;2024-01-16T10:40:49;8.40;;;7.50;;
78838;SDS011;68405;47.190;27.558;2024-01-16T10:43:36;7.60;;;6.90;;
78838;SDS011;68405;47.190;27.558;2024-01-16T10:46:10;9.60;;;8.60;;
78838;SDS011;68405;47.190;27.558;2024-01-16T10:48:41;9.10;;;8.10;;
78838;SDS011;68405;47.190;27.558;2024-01-16T10:51:16;10.00;;;8.10;;
78838;SDS011;68405;47.190;27.558;2024-01-16T10:53:45;7.80;;;6.80;;
78838;SDS011;68405;47.190;27.558;2024-01-16T10:56:15;8.00;;;7.20;;
78838;SDS011;68405;47.190;27.558;2024-01-16T10:58:52;8.10;;;7.30;;
78838;SDS011;68405;47.190;27.558;2024-01-16T11:01:32;8.30;;;7.30;;
78838;SDS011;68405;47.190;27.558;2024-01-16T11:04:04;8.10;;;7.30;;
78838;SDS011;68405;47.190;27.558;2024-01-16T11:09:40;8.70;;;7.30;;
78838;SDS011;68405;47.190;27.558;2024-01-16T11:12:12;8.80;;;7.00;;
78838;SDS011;68405;47.190;27.558;2024-01-16T11:14:45;6.60;;;6.00;;
78838;SDS011;68405;47.190;27.558;2024-01-16T11:17:18;6.30;;;5.70;;
78838;SDS011;68405;47.190;27.558;2024-01-16T11:19:48;6.80;;;6.10;;
78838;SDS011;68405;47.190;27.558;2024-01-16T11:22:20;6.90;;;6.20;;
78838;SDS011;68405;47.190;27.558;2024-01-16T11:27:37;8.80;;;7.10;;
78838;SDS011;68405;47.190;27.558;2024-01-16T11:30:12;7.20;;;6.10;;
78838;SDS011;68405;47.190;27.558;2024-01-16T11:32:57;7.60;;;6.20;;
78838;SDS011;68405;47.190;27.558;2024-01-16T11:35:35;7.60;;;6.30;;
78838;SDS011;68405;47.190;27.558;2024-01-16T11:38:11;6.90;;;5.90;;
78838;SDS011;68405;47.190;27.558;2024-01-16T11:40:43;6.80;;;6.10;;
78838;SDS011;68405;47.190;27.558;2024-01-16T11:46:06;6.90;;;6.10;;
78838;SDS011;68405;47.190;27.558;2024-01-16T11:48:36;8.20;;;6.50;;
78838;SDS011;68405;47.190;27.558;2024-01-16T11:54:02;7.30;;;5.90;;
78838;SDS011;68405;47.190;27.558;2024-01-16T12:03:09;7.50;;;6.00;;
78838;SDS011;68405;47.190;27.558;2024-01-16T12:05:44;10.90;;;7.60;;
78838;SDS011;68405;47.190;27.558;2024-01-16T12:08:22;8.20;;;6.40;;
78838;SDS011;68405;47.190;27.558;2024-01-16T12:10:51;9.00;;;6.90;;
78838;SDS011;68405;47.190;27.558;2024-01-16T12:13:25;9.20;;;7.30;;
78838;SDS011;68405;47.190;27.558;2024-01-16T12:16:02;7.30;;;5.50;;
78838;SDS011;68405;47.190;27.558;2024-01-16T12:18:32;7.00;;;5.80;;
78838;SDS011;68405;47.190;27.558;2024-01-16T12:21:09;9.40;;;6.00;;
78838;SDS011;68405;47.190;27.558;2024-01-16T12:23:39;6.80;;;5.90;;
78838;SDS011;68405;47.190;27.558;2024-01-16T12:26:12;9.30;;;6.10;;
78838;SDS011;68405;47.190;27.558;2024-01-16T12:28:51;8.70;;;6.50;;
78838;SDS011;68405;47.190;27.558;2024-01-16T12:31:22;7.80;;;5.70;;
78838;SDS011;68405;47.190;27.558;2024-01-16T12:33:51;8.60;;;4.70;;
78838;SDS011;68405;47.190;27.558;2024-01-16T12:36:23;6.20;;;4.20;;
78838;SDS011;68405;47.190;27.558;2024-01-16T12:39:03;9.20;;;4.80;;
78838;SDS011;68405;47.190;27.558;2024-01-16T12:41:40;5.20;;;4.00;;
78838;SDS011;68405;47.190;27.558;2024-01-16T12:44:13;4.60;;;3.20;;
78838;SDS011;68405;47.190;27.558;2024-01-16T12:46:43;4.60;;;2.90;;
78838;SDS011;68405;47.190;27.558;2024-01-16T12:49:21;4.10;;;2.90;;
78838;SDS011;68405;47.190;27.558;2024-01-16T12:54:37;3.50;;;2.30;;
78838;SDS011;68405;47.190;27.558;2024-01-16T12:57:06;3.90;;;2.80;;
78838;SDS011;68405;47.190;27.558;2024-01-16T12:59:42;3.40;;;2.40;;
78838;SDS011;68405;47.190;27.558;2024-01-16T13:02:19;3.50;;;2.20;;
78838;SDS011;68405;47.190;27.558;2024-01-16T13:04:58;2.90;;;2.00;;
78838;SDS011;68405;47.190;27.558;2024-01-16T13:07:32;3.50;;;2.30;;
78838;SDS011;68405;47.190;27.558;2024-01-16T13:10:08;5.40;;;2.90;;
78838;SDS011;68405;47.190;27.558;2024-01-16T13:12:45;5.10;;;3.10;;
78838;SDS011;68405;47.190;27.558;2024-01-16T13:15:15;6.00;;;3.40;;
78838;SDS011;68405;47.190;27.558;2024-01-16T13:17:47;5.90;;;3.50;;
78838;SDS011;68405;47.190;27.558;2024-01-16T13:20:17;4.40;;;3.00;;
78838;SDS011;68405;47.190;27.558;2024-01-16T13:22:47;4.50;;;3.50;;
78838;SDS011;68405;47.190;27.558;2024-01-16T13:25:16;4.90;;;3.10;;
78838;SDS011;68405;47.190;27.558;2024-01-16T13:27:45;4.50;;;3.60;;
78838;SDS011;68405;47.190;27.558;2024-01-16T13:30:17;4.40;;;2.70;;
78838;SDS011;68405;47.190;27.558;2024-01-16T13:32:47;6.00;;;3.30;;
78838;SDS011;68405;47.190;27.558;2024-01-16T13:35:18;5.70;;;3.30;;
78838;SDS011;68405;47.190;27.558;2024-01-16T13:37:47;5.30;;;3.00;;
78838;SDS011;68405;47.190;27.558;2024-01-16T13:40:17;5.90;;;3.20;;
78838;SDS011;68405;47.190;27.558;2024-01-16T13:42:49;4.30;;;2.80;;
78838;SDS011;68405;47.190;27.558;2024-01-16T13:45:19;4.70;;;2.90;;
78838;SDS011;68405;47.190;27.558;2024-01-16T13:47:48;4.70;;;2.30;;
78838;SDS011;68405;47.190;27.558;2024-01-16T13:50:17;4.80;;;2.50;;
78838;SDS011;68405;47.190;27.558;2024-01-16T13:52:47;5.60;;;2.50;;
78838;SDS011;68405;47.190;27.558;2024-01-16T13:55:18;3.50;;;2.60;;
78838;SDS011;68405;47.190;27.558;2024-01-16T13:57:48;3.70;;;2.60;;
78838;SDS011;68405;47.190;27.558;2024-01-16T14:00:18;4.70;;;2.60;;
78838;SDS011;68405;47.190;27.558;2024-01-16T14:02:47;3.60;;;2.60;;
78838;SDS011;68405;47.190;27.558;2024-01-16T14:05:18;4.20;;;3.00;;
78838;SDS011;68405;47.190;27.558;2024-01-16T14:07:48;4.20;;;2.40;;
78838;SDS011;68405;47.190;27.558;2024-01-16T14:18:44;4.60;;;2.90;;
78838;SDS011;68405;47.190;27.558;2024-01-16T14:21:13;4.20;;;2.80;;
78838;SDS011;68405;47.190;27.558;2024-01-16T14:23:43;5.30;;;2.90;;
78838;SDS011;68405;47.190;27.558;2024-01-16T14:26:15;5.00;;;3.30;;
78838;SDS011;68405;47.190;27.558;2024-01-16T14:28:44;5.40;;;3.10;;
78838;SDS011;68405;47.190;27.558;2024-01-16T14:31:13;3.70;;;2.80;;
78838;SDS011;68405;47.190;27.558;2024-01-16T14:33:43;4.50;;;2.60;;
78838;SDS011;68405;47.190;27.558;2024-01-16T14:36:13;4.30;;;2.60;;
78838;SDS011;68405;47.190;27.558;2024-01-16T14:38:43;5.30;;;2.60;;
78838;SDS011;68405;47.190;27.558;2024-01-16T14:41:12;4.50;;;2.50;;
78838;SDS011;68405;47.190;27.558;2024-01-16T14:43:44;4.60;;;2.70;;
78838;SDS011;68405;47.190;27.558;2024-01-16T14:46:19;3.90;;;2.20;;
78838;SDS011;68405;47.190;27.558;2024-01-16T14:48:53;4.50;;;2.60;;
78838;SDS011;68405;47.190;27.558;2024-01-16T14:51:22;4.40;;;2.50;;
78838;SDS011;68405;47.190;27.558;2024-01-16T14:53:54;3.70;;;2.00;;
78838;SDS011;68405;47.190;27.558;2024-01-16T14:56:22;4.00;;;2.60;;
78838;SDS011;68405;47.190;27.558;2024-01-16T14:58:52;4.50;;;2.80;;
78838;SDS011;68405;47.190;27.558;2024-01-16T15:01:21;5.70;;;2.70;;
78838;SDS011;68405;47.190;27.558;2024-01-16T15:03:51;5.00;;;3.20;;
78838;SDS011;68405;47.190;27.558;2024-01-16T15:06:20;5.70;;;3.00;;
78838;SDS011;68405;47.190;27.558;2024-01-16T15:08:49;4.00;;;2.50;;
78838;SDS011;68405;47.190;27.558;2024-01-16T15:11:18;5.60;;;3.80;;
78838;SDS011;68405;47.190;27.558;2024-01-16T15:13:47;10.60;;;5.00;;
78838;SDS011;68405;47.190;27.558;2024-01-16T15:16:32;24.80;;;11.40;;
78838;SDS011;68405;47.190;27.558;2024-01-16T15:19:04;13.10;;;6.40;;
78838;SDS011;68405;47.190;27.558;2024-01-16T15:21:33;9.10;;;5.00;;
78838;SDS011;68405;47.190;27.558;2024-01-16T15:24:06;8.40;;;5.00;;
78838;SDS011;68405;47.190;27.558;2024-01-16T15:26:38;14.70;;;7.90;;
78838;SDS011;68405;47.190;27.558;2024-01-16T15:29:10;11.40;;;5.40;;
78838;SDS011;68405;47.190;27.558;2024-01-16T15:31:39;24.00;;;11.90;;
78838;SDS011;68405;47.190;27.558;2024-01-16T15:36:38;6.20;;;3.60;;
78838;SDS011;68405;47.190;27.558;2024-01-16T15:39:08;10.50;;;5.30;;
78838;SDS011;68405;47.190;27.558;2024-01-16T15:41:37;6.50;;;3.10;;
78838;SDS011;68405;47.190;27.558;2024-01-16T15:44:07;10.40;;;5.90;;
78838;SDS011;68405;47.190;27.558;2024-01-16T15:49:26;5.80;;;3.40;;
78838;SDS011;68405;47.190;27.558;2024-01-16T15:51:59;6.70;;;3.70;;
78838;SDS011;68405;47.190;27.558;2024-01-16T15:54:28;7.50;;;3.80;;
78838;SDS011;68405;47.190;27.558;2024-01-16T15:56:58;5.90;;;3.80;;
78838;SDS011;68405;47.190;27.558;2024-01-16T15:59:27;4.20;;;2.80;;
78838;SDS011;68405;47.190;27.558;2024-01-16T16:04:26;5.30;;;2.40;;
78838;SDS011;68405;47.190;27.558;2024-01-16T16:07:04;3.20;;;2.60;;
78838;SDS011;68405;47.190;27.558;2024-01-16T16:09:35;3.80;;;2.80;;
78838;SDS011;68405;47.190;27.558;2024-01-16T16:12:13;4.30;;;2.50;;
78838;SDS011;68405;47.190;27.558;2024-01-16T16:14:49;3.90;;;2.70;;
78838;SDS011;68405;47.190;27.558;2024-01-16T16:17:18;5.50;;;2.60;;
78838;SDS011;68405;47.190;27.558;2024-01-16T16:19:52;3.90;;;2.90;;
78838;SDS011;68405;47.190;27.558;2024-01-16T16:25:06;5.30;;;2.90;;
78838;SDS011;68405;47.190;27.558;2024-01-16T16:27:36;4.00;;;2.50;;
78838;SDS011;68405;47.190;27.558;2024-01-16T16:30:08;5.60;;;3.60;;
78838;SDS011;68405;47.190;27.558;2024-01-16T16:32:45;5.20;;;3.70;;
78838;SDS011;68405;47.190;27.558;2024-01-16T16:35:14;5.70;;;3.30;;
78838;SDS011;68405;47.190;27.558;2024-01-16T16:37:46;6.50;;;3.40;;
78838;SDS011;68405;47.190;27.558;2024-01-16T16:40:15;4.80;;;3.20;;
78838;SDS011;68405;47.190;27.558;2024-01-16T16:42:46;3.70;;;2.70;;
78838;SDS011;68405;47.190;27.558;2024-01-16T16:45:15;4.50;;;3.20;;
78838;SDS011;68405;47.190;27.558;2024-01-16T16:47:44;4.80;;;2.60;;
78838;SDS011;68405;47.190;27.558;2024-01-16T16:50:14;6.00;;;3.30;;
78838;SDS011;68405;47.190;27.558;2024-01-16T16:52:44;5.40;;;2.80;;
78838;SDS011;68405;47.190;27.558;2024-01-16T16:55:13;4.60;;;2.80;;
78838;SDS011;68405;47.190;27.558;2024-01-16T16:57:42;4.20;;;3.00;;
78838;SDS011;68405;47.190;27.558;2024-01-16T17:00:14;5.00;;;3.00;;
78838;SDS011;68405;47.190;27.558;2024-01-16T17:02:43;5.80;;;3.50;;
78838;SDS011;68405;47.190;27.558;2024-01-16T17:05:12;4.90;;;3.20;;
78838;SDS011;68405;47.190;27.558;2024-01-16T17:07:47;5.50;;;3.20;;
78838;SDS011;68405;47.190;27.558;2024-01-16T17:10:17;5.10;;;3.10;;
78838;SDS011;68405;47.190;27.558;2024-01-16T17:15:19;5.60;;;2.50;;
78838;SDS011;68405;47.190;27.558;2024-01-16T17:17:48;4.80;;;2.40;;
78838;SDS011;68405;47.190;27.558;2024-01-16T17:20:20;4.70;;;3.10;;
78838;SDS011;68405;47.190;27.558;2024-01-16T17:22:49;3.90;;;3.00;;
78838;SDS011;68405;47.190;27.558;2024-01-16T17:25:18;4.20;;;2.90;;
78838;SDS011;68405;47.190;27.558;2024-01-16T17:27:50;3.80;;;2.50;;
78838;SDS011;68405;47.190;27.558;2024-01-16T17:30:19;4.60;;;2.40;;